Time;durP1;ratioP1;P1;durP2;ratioP2;P2;SDS_P1;SDS_P2;PMS_P1;PMS_P2;Temp;Humidity;BMP_temperature;BMP_pressure;BME280_temperature;BME280_humidity;BME280_pressure;Samples;Min_cycle;Max_cycle;Signal;HPM_P1;HPM_P2
2022/09/05 00:01:07;;;;;;;3.5;2.9;;;;;;;;;;;;;
2022/09/05 00:03:32;;;;;;;3.2;2.9;;;;;;;;;;;;;
2022/09/05 00:06:00;;;;;;;2.9;2.5;;;;;;;;;;;;;
2022/09/05 00:08:26;;;;;;;3.4;2.8;;;;;;;;;;;;;
2022/09/05 00:10:51;;;;;;;4.4;3.2;;;;;;;;;;;;;
2022/09/05 00:13:16;;;;;;;3.3;2.9;;;;;;;;;;;;;
2022/09/05 00:15:41;;;;;;;3;2.7;;;;;;;;;;;;;
2022/09/05 00:18:08;;;;;;;3.9;2.9;;;;;;;;;;;;;
2022/09/05 00:20:34;;;;;;;3.1;2.8;;;;;;;;;;;;;
2022/09/05 00:22:59;;;;;;;4.1;2.7;;;;;;;;;;;;;
2022/09/05 00:25:24;;;;;;;4.1;2.5;;;;;;;;;;;;;
2022/09/05 00:27:49;;;;;;;2.9;2.3;;;;;;;;;;;;;
2022/09/05 00:30:14;;;;;;;3.6;2.6;;;;;;;;;;;;;
2022/09/05 00:32:39;;;;;;;3.2;2.5;;;;;;;;;;;;;
2022/09/05 00:35:05;;;;;;;4.7;2.8;;;;;;;;;;;;;
2022/09/05 00:37:32;;;;;;;2.9;2.6;;;;;;;;;;;;;
2022/09/05 00:39:58;;;;;;;4.4;2.6;;;;;;;;;;;;;
2022/09/05 00:42:22;;;;;;;3.9;2.6;;;;;;;;;;;;;
2022/09/05 00:44:49;;;;;;;4.1;3;;;;;;;;;;;;;
2022/09/05 00:47:13;;;;;;;4.8;2.6;;;;;;;;;;;;;
2022/09/05 00:49:39;;;;;;;4.4;2.7;;;;;;;;;;;;;
2022/09/05 00:52:14;;;;;;;2.8;2.5;;;;;;;;;;;;;
2022/09/05 00:54:39;;;;;;;3.3;2.5;;;;;;;;;;;;;
2022/09/05 00:57:05;;;;;;;5.1;2.6;;;;;;;;;;;;;
2022/09/05 00:59:30;;;;;;;3;2.6;;;;;;;;;;;;;
2022/09/05 01:01:56;;;;;;;3;2.7;;;;;;;;;;;;;
2022/09/05 01:04:21;;;;;;;3;2.7;;;;;;;;;;;;;
2022/09/05 01:06:46;;;;;;;3.4;3;;;;;;;;;;;;;
2022/09/05 01:09:11;;;;;;;4.4;2.6;;;;;;;;;;;;;
2022/09/05 01:11:36;;;;;;;4.1;2.6;;;;;;;;;;;;;
2022/09/05 01:14:01;;;;;;;3.5;2.7;;;;;;;;;;;;;
2022/09/05 01:16:27;;;;;;;2.9;2.7;;;;;;;;;;;;;
2022/09/05 01:18:52;;;;;;;3;2.7;;;;;;;;;;;;;
2022/09/05 01:21:17;;;;;;;3.6;2.5;;;;;;;;;;;;;
2022/09/05 01:23:42;;;;;;;3.3;2.8;;;;;;;;;;;;;
2022/09/05 01:26:07;;;;;;;3.4;2.9;;;;;;;;;;;;;
2022/09/05 01:28:32;;;;;;;5.1;3;;;;;;;;;;;;;
2022/09/05 01:30:58;;;;;;;3.5;2.6;;;;;;;;;;;;;
2022/09/05 01:33:23;;;;;;;5;2.8;;;;;;;;;;;;;
2022/09/05 01:36:05;;;;;;;2.9;2.6;;;;;;;;;;;;;
2022/09/05 01:38:40;;;;;;;3.5;2.7;;;;;;;;;;;;;
2022/09/05 01:41:08;;;;;;;3.7;2.9;;;;;;;;;;;;;
2022/09/05 01:43:45;;;;;;;3.1;2.8;;;;;;;;;;;;;
2022/09/05 01:46:16;;;;;;;3;2.5;;;;;;;;;;;;;
2022/09/05 01:48:43;;;;;;;3.4;3.1;;;;;;;;;;;;;
2022/09/05 01:51:24;;;;;;;3;2.7;;;;;;;;;;;;;
2022/09/05 01:53:55;;;;;;;3.4;2.6;;;;;;;;;;;;;
2022/09/05 01:56:28;;;;;;;3;2.7;;;;;;;;;;;;;
2022/09/05 01:59:03;;;;;;;3.1;2.6;;;;;;;;;;;;;
2022/09/05 02:01:29;;;;;;;4.1;3.3;;;;;;;;;;;;;
2022/09/05 02:04:13;;;;;;;3.7;3.1;;;;;;;;;;;;;
2022/09/05 02:06:53;;;;;;;4.2;2.7;;;;;;;;;;;;;
2022/09/05 02:09:25;;;;;;;3.1;2.6;;;;;;;;;;;;;
2022/09/05 02:11:50;;;;;;;2.9;2.6;;;;;;;;;;;;;
2022/09/05 02:14:15;;;;;;;3.9;2.9;;;;;;;;;;;;;
2022/09/05 02:16:43;;;;;;;4.3;2.8;;;;;;;;;;;;;
2022/09/05 02:19:07;;;;;;;3.4;2.7;;;;;;;;;;;;;
2022/09/05 02:21:34;;;;;;;2.8;2.6;;;;;;;;;;;;;
2022/09/05 02:23:57;;;;;;;2.7;2.5;;;;;;;;;;;;;
2022/09/05 02:26:23;;;;;;;3.4;2.8;;;;;;;;;;;;;
2022/09/05 02:28:48;;;;;;;4.9;3.1;;;;;;;;;;;;;
2022/09/05 02:31:15;;;;;;;2.8;2.6;;;;;;;;;;;;;
2022/09/05 02:33:40;;;;;;;3.1;2.8;;;;;;;;;;;;;
2022/09/05 02:36:05;;;;;;;2.7;2.5;;;;;;;;;;;;;
2022/09/05 02:38:31;;;;;;;2.9;2.6;;;;;;;;;;;;;
2022/09/05 02:40:56;;;;;;;3.7;2.6;;;;;;;;;;;;;
2022/09/05 02:43:21;;;;;;;2.7;2.5;;;;;;;;;;;;;
2022/09/05 02:45:49;;;;;;;2.9;2.7;;;;;;;;;;;;;
2022/09/05 02:48:14;;;;;;;2.7;2.5;;;;;;;;;;;;;
2022/09/05 02:50:39;;;;;;;2.6;2.4;;;;;;;;;;;;;
2022/09/05 02:53:04;;;;;;;3.3;3;;;;;;;;;;;;;
2022/09/05 02:55:33;;;;;;;2.9;2.7;;;;;;;;;;;;;
2022/09/05 02:57:57;;;;;;;2.9;2.6;;;;;;;;;;;;;
2022/09/05 03:00:23;;;;;;;4.9;3.1;;;;;;;;;;;;;
2022/09/05 03:02:48;;;;;;;5.5;2.9;;;;;;;;;;;;;
2022/09/05 03:05:13;;;;;;;2.7;2.5;;;;;;;;;;;;;
2022/09/05 03:07:38;;;;;;;3.4;3;;;;;;;;;;;;;
2022/09/05 03:10:03;;;;;;;3.6;2.6;;;;;;;;;;;;;
2022/09/05 03:12:32;;;;;;;5;2.8;;;;;;;;;;;;;
2022/09/05 03:14:57;;;;;;;3.1;2.6;;;;;;;;;;;;;
2022/09/05 03:17:22;;;;;;;4;3;;;;;;;;;;;;;
2022/09/05 03:19:47;;;;;;;4.6;2.9;;;;;;;;;;;;;
2022/09/05 03:22:14;;;;;;;4.5;3.1;;;;;;;;;;;;;
2022/09/05 03:24:39;;;;;;;3.2;2.7;;;;;;;;;;;;;
2022/09/05 03:27:04;;;;;;;5.1;3.2;;;;;;;;;;;;;
2022/09/05 03:29:29;;;;;;;4.2;3.1;;;;;;;;;;;;;
2022/09/05 03:31:55;;;;;;;2.9;2.6;;;;;;;;;;;;;
2022/09/05 03:34:19;;;;;;;4.6;3;;;;;;;;;;;;;
2022/09/05 03:36:47;;;;;;;3.8;3.1;;;;;;;;;;;;;
2022/09/05 03:39:12;;;;;;;4.6;3.4;;;;;;;;;;;;;
2022/09/05 03:41:37;;;;;;;3.8;2.6;;;;;;;;;;;;;
2022/09/05 03:44:03;;;;;;;3.4;3;;;;;;;;;;;;;
2022/09/05 03:48:53;;;;;;;4.3;3.4;;;;;;;;;;;;;
2022/09/05 03:51:18;;;;;;;3.6;3;;;;;;;;;;;;;
2022/09/05 03:53:43;;;;;;;3.8;2.8;;;;;;;;;;;;;
2022/09/05 03:56:09;;;;;;;3.8;2.6;;;;;;;;;;;;;
2022/09/05 03:58:34;;;;;;;3.1;2.8;;;;;;;;;;;;;
2022/09/05 04:02:35;;;;;;;3.3;3;;;;;;;14.36;94.53125;942.9906;;;;
2022/09/05 04:05:03;;;;;;;4.9;3.2;;;;;;;14.43;93.62793;942.933;;;;
2022/09/05 04:07:28;;;;;;;4.3;3.5;;;;;;;14.4;93.67773;942.9123;;;;
2022/09/05 04:09:53;;;;;;;3.7;3;;;;;;;14.26;94.71777;942.9023;;;;
2022/09/05 04:12:18;;;;;;;3.5;3.1;;;;;;;14.29;94.54102;942.8624;;;;
2022/09/05 04:14:57;;;;;;;4.9;3.6;;;;;;;14.31;94.41992;942.8192;;;;
2022/09/05 04:17:23;;;;;;;3.4;3;;;;;;;14.33;93.96094;942.8585;;;;
2022/09/05 04:19:48;;;;;;;3.8;3.1;;;;;;;14.24;94.81934;942.8719;;;;
2022/09/05 04:22:13;;;;;;;4;3;;;;;;;14.22;95.21582;942.8886;;;;
2022/09/05 04:24:38;;;;;;;3.3;2.9;;;;;;;14.33;94.60645;942.9097;;;;
2022/09/05 04:27:03;;;;;;;4.6;3.1;;;;;;;14.41;94.09375;942.8826;;;;
2022/09/05 04:29:31;;;;;;;4;3;;;;;;;14.34;95.31055;942.8279;;;;
2022/09/05 04:32:01;;;;;;;4;2.7;;;;;;;14.21;95.53711;942.889;;;;
2022/09/05 04:34:25;;;;;;;2.9;2.5;;;;;;;14.29;95.25684;942.787;;;;
2022/09/05 04:36:50;;;;;;;3;2.6;;;;;;;14.4;94.62402;942.881;;;;
2022/09/05 04:42:48;;;;;;;3.3;2.8;;;;;;;14.28;95.0459;942.8262;;;;
2022/09/05 04:45:20;;;;;;;3.5;2.5;;;;;;;14.24;95.26855;942.8942;;;;
2022/09/05 04:47:46;;;;;;;4.5;2.8;;;;;;;14.45;94.33398;942.8361;;;;
2022/09/05 04:50:11;;;;;;;3.4;2.7;;;;;;;14.41;93.94629;942.9211;;;;
2022/09/05 04:52:42;;;;;;;3.2;2.8;;;;;;;14.43;93.89258;942.911;;;;
2022/09/05 04:55:08;;;;;;;3.2;2.8;;;;;;;14.4;93.89844;942.9066;;;;
2022/09/05 04:57:33;;;;;;;3.7;2.8;;;;;;;14.41;93.875;942.889;;;;
2022/09/05 05:00:01;;;;;;;3.2;2.9;;;;;;;14.32;94.31836;942.985;;;;
2022/09/05 05:02:29;;;;;;;4.2;3;;;;;;;14.29;94.39355;942.9777;;;;
2022/09/05 05:04:54;;;;;;;4.8;3.1;;;;;;;14.32;94.55859;942.981;;;;
2022/09/05 05:07:20;;;;;;;4;3;;;;;;;14.28;94.84961;942.9841;;;;
2022/09/05 05:09:45;;;;;;;5.1;3.1;;;;;;;14.33;94.49121;943.0516;;;;
2022/09/05 05:12:10;;;;;;;5;3;;;;;;;14.45;94.01172;943.0781;;;;
2022/09/05 05:14:36;;;;;;;4.4;2.9;;;;;;;14.5;93.8623;943.0886;;;;
2022/09/05 05:17:03;;;;;;;5;2.7;;;;;;;14.51;93.76953;943.1222;;;;
2022/09/05 05:19:28;;;;;;;5;2.9;;;;;;;14.6;93.3877;943.1689;;;;
2022/09/05 05:21:53;;;;;;;5.3;2.6;;;;;;;14.63;93.11719;943.1958;;;;
2022/09/05 05:24:18;;;;;;;7.2;2.8;;;;;;;14.73;92.72363;943.1942;;;;
2022/09/05 05:26:44;;;;;;;3.3;3;;;;;;;14.92;92.54395;943.1506;;;;
2022/09/05 05:29:09;;;;;;;3.6;2.9;;;;;;;14.83;92.62891;943.161;;;;
2022/09/05 05:31:34;;;;;;;3.7;3.1;;;;;;;14.93;92.24609;943.1635;;;;
2022/09/05 05:33:59;;;;;;;4;3.1;;;;;;;15.09;91.75977;943.1671;;;;
2022/09/05 05:36:24;;;;;;;4.9;3.2;;;;;;;15.16;91.1748;943.2344;;;;
2022/09/05 05:38:49;;;;;;;3.5;2.9;;;;;;;15.28;90.93359;943.1921;;;;
2022/09/05 05:41:17;;;;;;;4.2;2.8;;;;;;;15.52;89.96973;943.2483;;;;
2022/09/05 05:43:44;;;;;;;2.8;2.4;;;;;;;15.9;89.06348;943.2813;;;;
2022/09/05 05:46:09;;;;;;;5.2;2.2;;;;;;;16.63;87.76465;943.317;;;;
2022/09/05 05:48:34;;;;;;;3.6;2.2;;;;;;;17.23;81.68262;943.2753;;;;
2022/09/05 05:51:12;;;;;;;5.9;2.4;;;;;;;17.75;79.58496;943.3423;;;;
2022/09/05 05:53:35;;;;;;;2.6;2;;;;;;;18.38;76.26953;943.3419;;;;
2022/09/05 05:56:32;;;;;;;2.9;2.4;;;;;;;18.76;74.26465;943.3369;;;;
2022/09/05 05:58:57;;;;;;;2.2;2;;;;;;;19.53;71.14258;943.2883;;;;
2022/09/05 06:01:22;;;;;;;4;2.1;;;;;;;19.79;69.87793;943.2972;;;;
2022/09/05 06:03:47;;;;;;;4.2;2.1;;;;;;;19.08;71.95605;943.3392;;;;
2022/09/05 06:06:12;;;;;;;2.1;1.9;;;;;;;18.47;75.04004;943.2378;;;;
2022/09/05 06:08:39;;;;;;;3;2.1;;;;;;;19.08;73.5498;943.3716;;;;
2022/09/05 06:11:04;;;;;;;2.5;1.9;;;;;;;20.43;68.04199;943.2782;;;;
2022/09/05 06:13:29;;;;;;;4.5;2;;;;;;;21.71;64.25586;943.3084;;;;
2022/09/05 06:16:03;;;;;;;3.5;2.2;;;;;;;22.16;60.81543;943.2917;;;;
2022/09/05 06:18:29;;;;;;;6.4;2.3;;;;;;;22.18;60.76953;943.349;;;;
2022/09/05 06:20:56;;;;;;;3.8;2.2;;;;;;;22.18;62.10742;943.3667;;;;
2022/09/05 06:23:49;;;;;;;5.3;2.3;;;;;;;22.52;59.32813;943.3334;;;;
2022/09/05 06:26:14;;;;;;;4.7;2.5;;;;;;;22.16;61.03809;943.3314;;;;
2022/09/05 06:28:39;;;;;;;2.1;1.9;;;;;;;22.07;61.09668;943.3484;;;;
2022/09/05 06:31:04;;;;;;;3.8;2;;;;;;;22.33;61.1543;943.392;;;;
2022/09/05 06:33:30;;;;;;;3.1;2.3;;;;;;;22.53;60.9707;943.317;;;;
2022/09/05 06:35:59;;;;;;;2.2;1.7;;;;;;;22.52;59.09277;943.318;;;;
2022/09/05 06:38:25;;;;;;;2.5;1.8;;;;;;;22.05;60.99902;943.2916;;;;
2022/09/05 06:40:48;;;;;;;3.2;1.9;;;;;;;22.04;61.94824;943.338;;;;
2022/09/05 06:43:15;;;;;;;2.4;1.7;;;;;;;22.11;61.44141;943.3613;;;;
2022/09/05 06:45:40;;;;;;;2.6;1.8;;;;;;;22.23;62.19727;943.3631;;;;
2022/09/05 06:48:07;;;;;;;2.6;1.8;;;;;;;21.95;60.56348;943.3527;;;;
2022/09/05 06:50:38;;;;;;;2.1;1.9;;;;;;;21.85;62.98633;943.4138;;;;
2022/09/05 06:53:05;;;;;;;1.8;1.7;;;;;;;22.26;60.80469;943.4192;;;;
2022/09/05 06:55:30;;;;;;;3.2;2;;;;;;;21.89;61.1875;943.4048;;;;
2022/09/05 06:58:00;;;;;;;2.6;1.6;;;;;;;21.34;62.13086;943.4311;;;;
2022/09/05 07:00:28;;;;;;;2;1.7;;;;;;;21.37;63.43457;943.4094;;;;
2022/09/05 07:02:54;;;;;;;3.3;1.8;;;;;;;20.9;63.76367;943.4663;;;;
2022/09/05 07:05:19;;;;;;;3.1;1.4;;;;;;;21.08;66.32813;943.448;;;;
2022/09/05 07:07:43;;;;;;;2.4;1.7;;;;;;;21.09;63.33496;943.452;;;;
2022/09/05 07:10:12;;;;;;;2.9;1.8;;;;;;;21.54;62.60352;943.4031;;;;
2022/09/05 07:12:42;;;;;;;2.1;1.6;;;;;;;22.26;61.46289;943.4498;;;;
2022/09/05 07:15:07;;;;;;;1.9;1.6;;;;;;;22.61;60.8291;943.3836;;;;
2022/09/05 07:17:33;;;;;;;2.4;1.7;;;;;;;23.08;56.34668;943.4066;;;;
2022/09/05 07:20:02;;;;;;;1.9;1.5;;;;;;;23.44;56.52148;943.3253;;;;
2022/09/05 07:22:31;;;;;;;3.6;1.5;;;;;;;23.92;54.60645;943.3262;;;;
2022/09/05 07:24:54;;;;;;;2.3;1.8;;;;;;;24.02;54.95996;943.2862;;;;
2022/09/05 07:27:20;;;;;;;2.7;1.4;;;;;;;24.09;56.60547;943.3328;;;;
2022/09/05 07:29:45;;;;;;;1.7;1.6;;;;;;;23.88;55.2832;943.3;;;;
2022/09/05 07:32:10;;;;;;;2.7;1.4;;;;;;;23.49;55.78906;943.3306;;;;
2022/09/05 07:34:35;;;;;;;3.1;1.9;;;;;;;24.24;55.10449;943.3557;;;;
2022/09/05 07:37:00;;;;;;;1.6;1.5;;;;;;;24.5;53.79199;943.3585;;;;
2022/09/05 07:39:26;;;;;;;1.5;1.4;;;;;;;25.01;53.25293;943.3889;;;;
2022/09/05 07:41:52;;;;;;;1.7;1.6;;;;;;;25.5;51.11426;943.3624;;;;
2022/09/05 07:44:16;;;;;;;1.9;1.6;;;;;;;25.46;49.86816;943.351;;;;
2022/09/05 07:46:41;;;;;;;1.8;1.5;;;;;;;25.7;50.20313;943.3647;;;;
2022/09/05 07:49:19;;;;;;;1.5;1.4;;;;;;;26.47;47.69629;943.3113;;;;
2022/09/05 07:51:44;;;;;;;1.4;1.3;;;;;;;27.72;45.3125;943.2954;;;;
2022/09/05 07:54:11;;;;;;;1.9;1.7;;;;;;;27.25;45.50195;943.2781;;;;
2022/09/05 07:56:35;;;;;;;1.5;1.4;;;;;;;27.52;45.63672;943.3306;;;;
2022/09/05 07:59:07;;;;;;;1.5;1.4;;;;;;;28;43.96387;943.3077;;;;
2022/09/05 08:01:26;;;;;;;1.8;1.4;;;;;;;27.77;44.3916;943.3181;;;;
2022/09/05 08:03:51;;;;;;;2.1;1.5;;;;;;;27.84;44.55273;943.248;;;;
2022/09/05 08:06:19;;;;;;;1.7;1.6;;;;;;;28.55;43.89648;943.2983;;;;
2022/09/05 08:08:44;;;;;;;1.7;1.4;;;;;;;28.79;43.19629;943.2673;;;;
2022/09/05 08:11:09;;;;;;;2.3;1.8;;;;;;;29.43;40.75391;943.2487;;;;
2022/09/05 08:13:34;;;;;;;2.1;1.5;;;;;;;29.12;39.74902;943.2188;;;;
2022/09/05 08:16:02;;;;;;;1.6;1.4;;;;;;;30.22;39.53613;943.1978;;;;
2022/09/05 08:18:28;;;;;;;1.6;1.5;;;;;;;30.12;38.54883;943.257;;;;
2022/09/05 08:20:55;;;;;;;1.5;1.4;;;;;;;28.58;41.47363;943.199;;;;
2022/09/05 08:23:20;;;;;;;1.6;1.5;;;;;;;28.51;41.78906;943.1205;;;;
2022/09/05 08:25:46;;;;;;;1.9;1.1;;;;;;;30.25;40.12305;943.1564;;;;
2022/09/05 08:28:13;;;;;;;1.5;1.4;;;;;;;30.62;38.36426;943.1767;;;;
2022/09/05 08:30:38;;;;;;;1.6;1.4;;;;;;;30.45;37.8125;943.0567;;;;
2022/09/05 08:33:03;;;;;;;1.5;1.3;;;;;;;31.69;36.34766;943.0513;;;;
2022/09/05 08:35:29;;;;;;;4.4;1.8;;;;;;;32.03;35.84668;943.0719;;;;
2022/09/05 08:37:56;;;;;;;3.7;1.4;;;;;;;32.96;35.11523;943.0578;;;;
2022/09/05 08:40:22;;;;;;;1.5;1.4;;;;;;;33.7;33.50098;943.0338;;;;
2022/09/05 08:42:47;;;;;;;1.5;1.4;;;;;;;34.42;32.49316;942.9853;;;;
2022/09/05 08:45:14;;;;;;;1.5;1.4;;;;;;;33.87;33.15234;942.9267;;;;
2022/09/05 08:47:39;;;;;;;1.6;1.5;;;;;;;34.68;31.24609;942.9063;;;;
2022/09/05 08:50:04;;;;;;;1.2;1.2;;;;;;;33.19;32.17676;942.8948;;;;
2022/09/05 08:52:31;;;;;;;1.7;1.6;;;;;;;34.45;32.20703;942.8455;;;;
2022/09/05 08:54:56;;;;;;;1.4;1.3;;;;;;;35.49;29.81641;942.8339;;;;
2022/09/05 08:57:21;;;;;;;1.5;1.4;;;;;;;32.96;32.35449;942.8353;;;;
2022/09/05 08:59:47;;;;;;;1.7;1.6;;;;;;;34.76;30.60059;942.8205;;;;
2022/09/05 09:02:40;;;;;;;2.1;1.3;;;;;;;33.56;31.48242;942.8441;;;;
2022/09/05 09:05:06;;;;;;;1.8;1.5;;;;;;;35.4;29.12207;942.8293;;;;
2022/09/05 09:07:33;;;;;;;1.5;1.4;;;;;;;35.51;29.51563;942.8102;;;;
2022/09/05 09:09:58;;;;;;;2;1.3;;;;;;;34.55;32.10547;942.8006;;;;
2022/09/05 09:12:23;;;;;;;1.5;1.4;;;;;;;34.31;31.71582;942.8152;;;;
2022/09/05 09:14:48;;;;;;;1.5;1.4;;;;;;;35.19;30.55762;942.7892;;;;
2022/09/05 09:17:14;;;;;;;1.7;1.3;;;;;;;35.09;30.36914;942.8228;;;;
2022/09/05 09:19:39;;;;;;;2.4;1.3;;;;;;;33.65;33.05273;942.8151;;;;
2022/09/05 09:22:05;;;;;;;2.4;1.5;;;;;;;32.82;34.68457;942.7256;;;;
2022/09/05 09:24:30;;;;;;;2.3;1.6;;;;;;;32;36.44434;942.6718;;;;
2022/09/05 09:26:55;;;;;;;1.7;1.5;;;;;;;31.11;38.88477;942.673;;;;
2022/09/05 09:30:04;;;;;;;1.7;1.4;;;;;;;30.81;40.55566;942.6283;;;;
2022/09/05 09:32:34;;;;;;;1.9;1.7;;;;;;;31.1;37.17383;942.5994;;;;
2022/09/05 09:34:58;;;;;;;1.5;1.4;;;;;;;30.4;40.68652;942.6206;;;;
2022/09/05 09:37:27;;;;;;;1.7;1.6;;;;;;;28.96;44.84277;942.6136;;;;
2022/09/05 09:40:47;;;;;;;2.1;1.6;;;;;;;29;41.21484;942.5681;;;;
2022/09/05 09:43:16;;;;;;;2.8;1.8;;;;;;;29;43.66797;942.5309;;;;
2022/09/05 09:45:41;;;;;;;3.5;1.5;;;;;;;29.16;41.84961;942.5363;;;;
2022/09/05 09:48:06;;;;;;;2.5;1.5;;;;;;;28.86;44.76172;942.4805;;;;
2022/09/05 09:50:32;;;;;;;2.4;1.9;;;;;;;28.57;42.87695;942.5259;;;;
2022/09/05 09:52:57;;;;;;;2.4;1.5;;;;;;;28.68;42.70898;942.4503;;;;
2022/09/05 09:55:22;;;;;;;2;1.8;;;;;;;28.47;44.93652;942.5297;;;;
2022/09/05 09:57:47;;;;;;;1.5;1.4;;;;;;;28.73;39.91699;942.4471;;;;
2022/09/05 10:00:18;;;;;;;1.7;1.6;;;;;;;28.86;41.29688;942.4726;;;;
2022/09/05 10:02:43;;;;;;;1.6;1.5;;;;;;;28.86;41.27344;942.4454;;;;
2022/09/05 10:05:08;;;;;;;2;1.6;;;;;;;29.13;42.31055;942.492;;;;
2022/09/05 10:07:36;;;;;;;1.5;1.4;;;;;;;29.58;38.96777;942.4542;;;;
2022/09/05 10:10:02;;;;;;;3.1;1.5;;;;;;;29.38;42.44141;942.3978;;;;
2022/09/05 10:12:30;;;;;;;1.4;1.3;;;;;;;29.29;39.95605;942.3748;;;;
2022/09/05 10:14:59;;;;;;;1.4;1.3;;;;;;;29.5;40.7373;942.37;;;;
2022/09/05 10:17:24;;;;;;;2.9;1.6;;;;;;;30.23;38.43848;942.36;;;;
2022/09/05 10:19:50;;;;;;;1.4;1.3;;;;;;;30.86;39.90332;942.275;;;;
2022/09/05 10:22:15;;;;;;;1.4;1.3;;;;;;;31.38;37.72266;942.2789;;;;
2022/09/05 10:24:40;;;;;;;2;1.4;;;;;;;32.17;35.86914;942.2955;;;;
2022/09/05 10:27:05;;;;;;;1.3;1.2;;;;;;;31.89;37.5625;942.2816;;;;
2022/09/05 10:29:32;;;;;;;1.8;1.6;;;;;;;31.95;36.35645;942.2982;;;;
2022/09/05 10:31:58;;;;;;;1.4;1.3;;;;;;;31.53;35.24512;942.234;;;;
2022/09/05 10:34:24;;;;;;;2.1;1.6;;;;;;;30.66;42.47852;942.25;;;;
2022/09/05 10:36:49;;;;;;;2;1.5;;;;;;;30.53;43.57617;942.2708;;;;
2022/09/05 10:39:14;;;;;;;1.6;1.5;;;;;;;30.02;43.05078;942.2481;;;;
2022/09/05 10:41:39;;;;;;;1.9;1.7;;;;;;;30.25;43.60938;942.2664;;;;
2022/09/05 10:44:04;;;;;;;1.7;1.6;;;;;;;30.95;41.07129;942.147;;;;
2022/09/05 10:46:30;;;;;;;1.8;1.5;;;;;;;31.18;43.65234;942.1592;;;;
2022/09/05 10:48:55;;;;;;;1.4;1.3;;;;;;;31.18;43.49609;942.1184;;;;
2022/09/05 10:51:20;;;;;;;2.1;1.4;;;;;;;31.56;40.5625;942.0989;;;;
2022/09/05 10:53:46;;;;;;;1.5;1.4;;;;;;;32.54;35.27539;942.1102;;;;
2022/09/05 10:56:12;;;;;;;1.4;1.3;;;;;;;31.82;36.51367;942.1246;;;;
2022/09/05 10:58:42;;;;;;;1.4;1.3;;;;;;;32.27;35.38672;942.137;;;;
2022/09/05 11:01:03;;;;;;;1.5;1.3;;;;;;;32.01;35.27051;942.0934;;;;
2022/09/05 11:06:52;;;;;;;1.6;1.5;;;;;;;31.66;36.97949;942.0961;;;;
2022/09/05 11:09:19;;;;;;;1.5;1.4;;;;;;;31.02;37.42871;942.0244;;;;
2022/09/05 11:11:44;;;;;;;1.5;1.4;;;;;;;30.82;38.88379;942.1099;;;;
2022/09/05 11:14:11;;;;;;;1.4;1.3;;;;;;;30.5;38.96289;942.0047;;;;
2022/09/05 11:16:35;;;;;;;1.6;1.5;;;;;;;30.27;39.5293;942.0159;;;;
2022/09/05 11:20:03;;;;;;;2.2;1.6;;;;;;;29.89;40.61719;941.9972;;;;
2022/09/05 11:22:28;;;;;;;1.6;1.5;;;;;;;29.66;43.15918;941.916;;;;
2022/09/05 11:24:54;;;;;;;2.2;1.5;;;;;;;30.8;40.97363;941.998;;;;
2022/09/05 11:27:18;;;;;;;1.8;1.6;;;;;;;31.78;38.66699;941.934;;;;
2022/09/05 11:29:43;;;;;;;1.8;1.7;;;;;;;32.17;38.26758;942.0159;;;;
2022/09/05 11:32:11;;;;;;;1.6;1.5;;;;;;;31.51;39.84082;941.9778;;;;
2022/09/05 11:34:39;;;;;;;1.8;1.7;;;;;;;30.73;42.03125;941.99;;;;
2022/09/05 11:37:04;;;;;;;1.5;1.4;;;;;;;31.22;41.4541;941.9634;;;;
2022/09/05 11:39:30;;;;;;;2.4;1.6;;;;;;;31.6;40.45898;941.9694;;;;
2022/09/05 11:41:58;;;;;;;2.2;1.7;;;;;;;31.33;39.86035;941.8816;;;;
2022/09/05 11:44:23;;;;;;;1.7;1.6;;;;;;;31.22;40.67676;941.9114;;;;
2022/09/05 11:46:49;;;;;;;2;1.5;;;;;;;30.84;40.91699;941.9279;;;;
2022/09/05 11:49:14;;;;;;;1.4;1.3;;;;;;;30.63;41.2207;941.8589;;;;
2022/09/05 11:51:45;;;;;;;1.7;1.6;;;;;;;30.27;41.24805;941.892;;;;
2022/09/05 11:54:11;;;;;;;1.7;1.6;;;;;;;30.24;41.77051;941.8477;;;;
2022/09/05 11:56:37;;;;;;;1.6;1.5;;;;;;;30.86;41.0625;941.8842;;;;
2022/09/05 11:59:05;;;;;;;1.6;1.5;;;;;;;30.85;40.89551;941.9601;;;;
2022/09/05 12:01:32;;;;;;;1.5;1.3;;;;;;;30.45;42.24414;941.8994;;;;
2022/09/05 12:03:58;;;;;;;1.5;1.4;;;;;;;30.48;43.11816;941.8603;;;;
2022/09/05 12:06:23;;;;;;;2.4;1.5;;;;;;;31.54;40.43066;941.9033;;;;
2022/09/05 12:08:49;;;;;;;1.8;1.5;;;;;;;33.17;36.1416;941.9456;;;;
2022/09/05 12:11:15;;;;;;;2.1;1.7;;;;;;;33.54;34.87207;941.9035;;;;
2022/09/05 12:13:41;;;;;;;2;1.6;;;;;;;34.02;34.6084;941.8727;;;;
2022/09/05 12:16:06;;;;;;;1.7;1.6;;;;;;;35.46;32.74902;941.8267;;;;
2022/09/05 12:18:30;;;;;;;1.5;1.4;;;;;;;36.31;32.24121;941.7855;;;;
2022/09/05 12:20:55;;;;;;;1.5;1.4;;;;;;;36.85;29.91797;941.8199;;;;
2022/09/05 12:23:20;;;;;;;3.2;1.5;;;;;;;37.12;29.69336;941.8544;;;;
2022/09/05 12:25:49;;;;;;;3.6;1.5;;;;;;;36.26;30.8584;941.8533;;;;
2022/09/05 12:28:14;;;;;;;6.1;1.8;;;;;;;36.34;31.12988;941.8524;;;;
2022/09/05 12:30:41;;;;;;;1.8;1.4;;;;;;;35.2;32.56152;941.8886;;;;
2022/09/05 12:33:09;;;;;;;3.4;1.3;;;;;;;34.38;32.73242;941.8649;;;;
2022/09/05 12:35:33;;;;;;;2.1;1.6;;;;;;;33.48;34.375;941.8589;;;;
2022/09/05 12:37:58;;;;;;;2.2;1.6;;;;;;;32.51;36.30566;941.8558;;;;
2022/09/05 12:40:23;;;;;;;1.6;1.5;;;;;;;31.93;37.07324;941.8134;;;;
2022/09/05 12:42:51;;;;;;;1.4;1.3;;;;;;;31.81;37.35059;941.8284;;;;
2022/09/05 12:45:17;;;;;;;3;1.4;;;;;;;31.46;37.68164;941.8116;;;;
2022/09/05 12:47:42;;;;;;;2;1.7;;;;;;;30.99;39.18555;941.7693;;;;
2022/09/05 12:50:07;;;;;;;1.5;1.4;;;;;;;30.59;41.43262;941.8527;;;;
2022/09/05 12:52:35;;;;;;;2.4;1.5;;;;;;;30.55;40.83203;941.7506;;;;
2022/09/05 12:55:02;;;;;;;2;1.5;;;;;;;31.25;39.97266;941.7381;;;;
2022/09/05 12:57:27;;;;;;;1.6;1.5;;;;;;;30.26;40.53027;941.7382;;;;
2022/09/05 12:59:51;;;;;;;1.9;1.6;;;;;;;30.06;41.53906;941.7109;;;;
2022/09/05 13:02:16;;;;;;;1.5;1.4;;;;;;;30.6;41.60156;941.6514;;;;
2022/09/05 13:04:41;;;;;;;3;1.5;;;;;;;30.65;42.03418;941.7198;;;;
2022/09/05 13:07:08;;;;;;;2.9;1.9;;;;;;;31.15;39.23438;941.7078;;;;
2022/09/05 13:09:31;;;;;;;2.2;1.5;;;;;;;32.05;37.35938;941.6838;;;;
2022/09/05 13:12:02;;;;;;;1.8;1.7;;;;;;;33.74;35.23633;941.6923;;;;
2022/09/05 13:14:22;;;;;;;1.8;1.5;;;;;;;35.12;33.45996;941.6395;;;;
2022/09/05 13:16:47;;;;;;;2.7;1.6;;;;;;;35.45;31.78223;941.6342;;;;
2022/09/05 13:19:12;;;;;;;1.9;1.7;;;;;;;36.3;31.76953;941.5771;;;;
2022/09/05 13:21:38;;;;;;;1.6;1.5;;;;;;;36.13;30.40234;941.5247;;;;
2022/09/05 13:24:03;;;;;;;2.3;1.5;;;;;;;35.41;31.5498;941.5463;;;;
2022/09/05 13:26:27;;;;;;;1.2;1.2;;;;;;;34.55;32.32227;941.4906;;;;
2022/09/05 13:28:52;;;;;;;1.6;1.4;;;;;;;34.59;32.66211;941.5066;;;;
2022/09/05 13:31:18;;;;;;;2.1;1.5;;;;;;;34.58;32.58984;941.5074;;;;
2022/09/05 13:33:45;;;;;;;1.5;1.4;;;;;;;34.75;32.48145;941.5336;;;;
2022/09/05 13:36:11;;;;;;;1.5;1.4;;;;;;;35.06;32.70801;941.5133;;;;
2022/09/05 13:38:36;;;;;;;2.9;1.4;;;;;;;34.44;32.77246;941.4122;;;;
2022/09/05 13:41:02;;;;;;;2.3;1.7;;;;;;;33.15;36.48828;941.4093;;;;
2022/09/05 13:43:27;;;;;;;3.1;1.6;;;;;;;32.79;34.94727;941.4355;;;;
2022/09/05 13:45:52;;;;;;;2;1.3;;;;;;;32.26;37.02832;941.3455;;;;
2022/09/05 13:48:17;;;;;;;2.1;1.5;;;;;;;30.91;40.12305;941.334;;;;
2022/09/05 13:50:42;;;;;;;2.4;1.5;;;;;;;30.22;40.44336;941.3641;;;;
2022/09/05 13:53:08;;;;;;;1.6;1.5;;;;;;;29.96;39.47852;941.3267;;;;
2022/09/05 13:55:33;;;;;;;3.1;1.9;;;;;;;29.64;39.93848;941.3928;;;;
2022/09/05 13:57:58;;;;;;;2.8;1.8;;;;;;;29.42;40.68164;941.3293;;;;
2022/09/05 14:00:24;;;;;;;2.5;2.3;;;;;;;28.88;42.12012;941.3357;;;;
2022/09/05 14:02:52;;;;;;;9.9;2.3;;;;;;;28.65;43.52637;941.3139;;;;
2022/09/05 14:05:19;;;;;;;3.1;1.8;;;;;;;28.63;43.3584;941.322;;;;
2022/09/05 14:07:45;;;;;;;3.6;1.9;;;;;;;28.73;42.67871;941.2901;;;;
2022/09/05 14:10:10;;;;;;;1.9;1.7;;;;;;;28.63;42.62109;941.2827;;;;
2022/09/05 14:12:35;;;;;;;1.5;1.4;;;;;;;28.46;44.23438;941.2714;;;;
2022/09/05 14:15:01;;;;;;;2.4;1.6;;;;;;;28.58;43.23438;941.2403;;;;
2022/09/05 14:17:26;;;;;;;6.5;2.1;;;;;;;28.53;44.83496;941.2028;;;;
2022/09/05 14:22:16;;;;;;;2.5;1.5;;;;;;;28.61;44.03418;941.2484;;;;
2022/09/05 14:24:41;;;;;;;1.6;1.5;;;;;;;28.85;43.46289;941.2893;;;;
2022/09/05 14:27:07;;;;;;;2.4;1.7;;;;;;;28.36;45.56641;941.2762;;;;
2022/09/05 14:29:31;;;;;;;1.8;1.4;;;;;;;28.33;45.38574;941.261;;;;
2022/09/05 14:31:56;;;;;;;1.6;1.5;;;;;;;28.17;45.29883;941.2234;;;;
2022/09/05 14:34:21;;;;;;;3.1;1.7;;;;;;;28.18;44.52832;941.2335;;;;
2022/09/05 14:36:50;;;;;;;5.3;1.7;;;;;;;27.73;45.17188;941.2584;;;;
2022/09/05 14:39:15;;;;;;;2.4;1.8;;;;;;;28.07;45.47852;941.2106;;;;
2022/09/05 14:42:45;;;;;;;2.7;1.6;;;;;;;28.26;46.29395;941.1987;;;;
2022/09/05 14:45:13;;;;;;;4.6;1.7;;;;;;;28.56;46.24121;941.2151;;;;
2022/09/05 14:47:38;;;;;;;3.2;1.9;;;;;;;28.74;45.32129;941.1157;;;;
2022/09/05 14:50:06;;;;;;;3.6;1.9;;;;;;;28.7;44.65039;941.1754;;;;
2022/09/05 14:52:29;;;;;;;2.1;1.5;;;;;;;28.75;44.05957;941.2;;;;
2022/09/05 14:54:56;;;;;;;4.4;2;;;;;;;28.8;42.94629;941.187;;;;
2022/09/05 14:57:21;;;;;;;4.2;2;;;;;;;28.81;42.9834;941.1848;;;;
2022/09/05 14:59:46;;;;;;;2.2;1.4;;;;;;;28.9;42.33691;941.1951;;;;
2022/09/05 15:02:15;;;;;;;4.3;1.6;;;;;;;28.93;41.74414;941.2023;;;;
2022/09/05 15:04:39;;;;;;;2.5;1.7;;;;;;;28.82;43.00781;941.1835;;;;
2022/09/05 15:07:04;;;;;;;6.2;1.8;;;;;;;28.83;43.04395;941.1789;;;;
2022/09/05 15:09:29;;;;;;;5.8;2.2;;;;;;;28.75;42.97656;941.1449;;;;
2022/09/05 15:11:54;;;;;;;3;2;;;;;;;28.63;43.10938;941.1506;;;;
2022/09/05 15:14:26;;;;;;;2.6;1.7;;;;;;;28.51;43.12109;941.1423;;;;
2022/09/05 15:16:47;;;;;;;2.4;1.5;;;;;;;28.39;42.78809;941.1662;;;;
2022/09/05 15:19:12;;;;;;;1.9;1.8;;;;;;;28.35;44.46094;941.1094;;;;
2022/09/05 15:21:39;;;;;;;1.8;1.6;;;;;;;28.3;44.87109;941.1336;;;;
2022/09/05 15:24:02;;;;;;;1.5;1.4;;;;;;;27.97;45.86133;941.043;;;;
2022/09/05 15:26:30;;;;;;;3.2;1.9;;;;;;;27.86;46.38281;941.0295;;;;
2022/09/05 15:28:53;;;;;;;5;2.2;;;;;;;27.77;47.64355;941.0112;;;;
2022/09/05 15:31:18;;;;;;;3.9;1.9;;;;;;;27.73;47.55664;941.0452;;;;
2022/09/05 15:33:46;;;;;;;2.2;1.9;;;;;;;27.62;46.94141;941.005;;;;
2022/09/05 15:36:12;;;;;;;1.9;1.7;;;;;;;27.6;46.4873;940.9155;;;;
2022/09/05 15:38:36;;;;;;;1.6;1.5;;;;;;;27.61;46.41699;940.9486;;;;
2022/09/05 15:41:01;;;;;;;2.1;1.5;;;;;;;27.61;47.02246;940.9345;;;;
2022/09/05 15:43:26;;;;;;;2.5;1.7;;;;;;;27.62;47.54688;940.9706;;;;
2022/09/05 15:45:52;;;;;;;3.9;1.7;;;;;;;27.62;46.94141;940.9258;;;;
2022/09/05 15:52:04;;;;;;;2.6;1.6;;;;;;;27.59;48.17285;940.9337;;;;
2022/09/05 15:54:34;;;;;;;1.8;1.6;;;;;;;27.36;47.78027;940.9275;;;;